sensor_id;sensor_type;location;lat;lon;timestamp;P1;durP1;ratioP1;P2;durP2;ratioP2
55220;SDS011;41089;51.448;6.604;2022-11-03T00:01:03;8.73;;;3.27;;
55220;SDS011;41089;51.448;6.604;2022-11-03T00:07:05;11.13;;;3.45;;
55220;SDS011;41089;51.448;6.604;2022-11-03T00:13:05;12.88;;;3.45;;
55220;SDS011;41089;51.448;6.604;2022-11-03T00:19:08;8.90;;;2.78;;
55220;SDS011;41089;51.448;6.604;2022-11-03T00:25:09;14.77;;;3.42;;
55220;SDS011;41089;51.448;6.604;2022-11-03T00:31:23;12.47;;;3.53;;
55220;SDS011;41089;51.448;6.604;2022-11-03T00:37:26;16.25;;;4.07;;
55220;SDS011;41089;51.448;6.604;2022-11-03T00:43:31;14.07;;;3.33;;
55220;SDS011;41089;51.448;6.604;2022-11-03T00:49:38;11.18;;;4.13;;
55220;SDS011;41089;51.448;6.604;2022-11-03T00:55:48;11.13;;;2.85;;
55220;SDS011;41089;51.448;6.604;2022-11-03T01:01:49;9.35;;;2.95;;
55220;SDS011;41089;51.448;6.604;2022-11-03T01:07:51;11.50;;;3.60;;
55220;SDS011;41089;51.448;6.604;2022-11-03T01:13:56;10.45;;;2.88;;
55220;SDS011;41089;51.448;6.604;2022-11-03T01:26:24;11.38;;;3.70;;
55220;SDS011;41089;51.448;6.604;2022-11-03T01:32:28;18.05;;;3.45;;
55220;SDS011;41089;51.448;6.604;2022-11-03T01:38:35;10.73;;;3.25;;
55220;SDS011;41089;51.448;6.604;2022-11-03T01:44:47;15.45;;;3.85;;
55220;SDS011;41089;51.448;6.604;2022-11-03T01:50:50;14.32;;;3.20;;
55220;SDS011;41089;51.448;6.604;2022-11-03T01:56:55;12.02;;;3.25;;
55220;SDS011;41089;51.448;6.604;2022-11-03T02:02:57;11.70;;;3.92;;
55220;SDS011;41089;51.448;6.604;2022-11-03T02:09:04;15.68;;;4.20;;
55220;SDS011;41089;51.448;6.604;2022-11-03T02:15:07;16.08;;;4.40;;
55220;SDS011;41089;51.448;6.604;2022-11-03T02:27:40;14.35;;;3.67;;
55220;SDS011;41089;51.448;6.604;2022-11-03T02:40:02;10.80;;;4.38;;
55220;SDS011;41089;51.448;6.604;2022-11-03T02:46:05;16.15;;;4.72;;
55220;SDS011;41089;51.448;6.604;2022-11-03T02:58:56;16.45;;;3.80;;
55220;SDS011;41089;51.448;6.604;2022-11-03T03:05:04;13.95;;;3.60;;
55220;SDS011;41089;51.448;6.604;2022-11-03T03:11:10;12.10;;;4.15;;
55220;SDS011;41089;51.448;6.604;2022-11-03T03:17:47;15.23;;;4.30;;
55220;SDS011;41089;51.448;6.604;2022-11-03T03:30:21;16.45;;;4.05;;
55220;SDS011;41089;51.448;6.604;2022-11-03T03:36:21;11.88;;;3.58;;
55220;SDS011;41089;51.448;6.604;2022-11-03T03:42:29;13.55;;;3.78;;
55220;SDS011;41089;51.448;6.604;2022-11-03T03:48:31;12.00;;;3.83;;
55220;SDS011;41089;51.448;6.604;2022-11-03T03:54:34;11.00;;;3.45;;
55220;SDS011;41089;51.448;6.604;2022-11-03T04:00:34;11.23;;;3.90;;
55220;SDS011;41089;51.448;6.604;2022-11-03T04:06:38;11.77;;;3.63;;
55220;SDS011;41089;51.448;6.604;2022-11-03T04:12:40;12.10;;;3.67;;
55220;SDS011;41089;51.448;6.604;2022-11-03T04:19:02;11.30;;;3.05;;
55220;SDS011;41089;51.448;6.604;2022-11-03T04:25:25;14.57;;;3.42;;
55220;SDS011;41089;51.448;6.604;2022-11-03T04:31:25;9.43;;;4.10;;
55220;SDS011;41089;51.448;6.604;2022-11-03T04:37:35;11.57;;;2.80;;
55220;SDS011;41089;51.448;6.604;2022-11-03T04:43:36;9.45;;;2.70;;
55220;SDS011;41089;51.448;6.604;2022-11-03T04:49:38;14.07;;;3.28;;
55220;SDS011;41089;51.448;6.604;2022-11-03T04:55:39;13.45;;;3.80;;
55220;SDS011;41089;51.448;6.604;2022-11-03T05:01:41;10.57;;;3.33;;
55220;SDS011;41089;51.448;6.604;2022-11-03T05:07:51;13.63;;;5.28;;
55220;SDS011;41089;51.448;6.604;2022-11-03T05:20:37;16.92;;;3.78;;
55220;SDS011;41089;51.448;6.604;2022-11-03T05:26:42;16.58;;;4.18;;
55220;SDS011;41089;51.448;6.604;2022-11-03T05:32:44;12.07;;;3.47;;
55220;SDS011;41089;51.448;6.604;2022-11-03T05:38:48;12.23;;;3.80;;
55220;SDS011;41089;51.448;6.604;2022-11-03T05:44:50;15.13;;;4.65;;
55220;SDS011;41089;51.448;6.604;2022-11-03T05:50:54;16.70;;;4.25;;
55220;SDS011;41089;51.448;6.604;2022-11-03T05:56:59;14.27;;;4.38;;
55220;SDS011;41089;51.448;6.604;2022-11-03T06:03:00;16.85;;;4.28;;
55220;SDS011;41089;51.448;6.604;2022-11-03T06:15:21;11.73;;;3.80;;
55220;SDS011;41089;51.448;6.604;2022-11-03T06:21:33;13.43;;;4.18;;
55220;SDS011;41089;51.448;6.604;2022-11-03T06:27:34;11.27;;;3.92;;
55220;SDS011;41089;51.448;6.604;2022-11-03T06:33:34;14.53;;;4.43;;
55220;SDS011;41089;51.448;6.604;2022-11-03T06:39:35;15.40;;;5.75;;
55220;SDS011;41089;51.448;6.604;2022-11-03T06:51:46;18.90;;;6.30;;
55220;SDS011;41089;51.448;6.604;2022-11-03T06:57:54;17.42;;;5.90;;
55220;SDS011;41089;51.448;6.604;2022-11-03T07:03:59;11.57;;;5.45;;
55220;SDS011;41089;51.448;6.604;2022-11-03T07:10:02;15.68;;;4.90;;
55220;SDS011;41089;51.448;6.604;2022-11-03T07:16:02;11.80;;;4.28;;
55220;SDS011;41089;51.448;6.604;2022-11-03T07:28:33;10.77;;;3.67;;
55220;SDS011;41089;51.448;6.604;2022-11-03T07:34:35;13.70;;;3.95;;
55220;SDS011;41089;51.448;6.604;2022-11-03T07:40:37;13.20;;;3.63;;
55220;SDS011;41089;51.448;6.604;2022-11-03T07:46:45;12.00;;;4.10;;
55220;SDS011;41089;51.448;6.604;2022-11-03T07:52:49;9.65;;;4.03;;
55220;SDS011;41089;51.448;6.604;2022-11-03T08:05:11;13.77;;;4.80;;
55220;SDS011;41089;51.448;6.604;2022-11-03T08:11:17;15.40;;;4.25;;
55220;SDS011;41089;51.448;6.604;2022-11-03T08:17:25;13.07;;;3.42;;
55220;SDS011;41089;51.448;6.604;2022-11-03T08:23:27;8.43;;;3.00;;
55220;SDS011;41089;51.448;6.604;2022-11-03T08:29:37;12.57;;;4.30;;
55220;SDS011;41089;51.448;6.604;2022-11-03T08:35:39;10.30;;;3.50;;
55220;SDS011;41089;51.448;6.604;2022-11-03T08:41:40;9.57;;;3.35;;
55220;SDS011;41089;51.448;6.604;2022-11-03T08:47:41;10.60;;;3.70;;
55220;SDS011;41089;51.448;6.604;2022-11-03T08:53:45;16.03;;;3.70;;
55220;SDS011;41089;51.448;6.604;2022-11-03T08:59:56;10.60;;;3.45;;
55220;SDS011;41089;51.448;6.604;2022-11-03T09:05:59;12.77;;;3.38;;
55220;SDS011;41089;51.448;6.604;2022-11-03T09:12:02;12.30;;;4.03;;
55220;SDS011;41089;51.448;6.604;2022-11-03T09:18:09;10.35;;;3.78;;
55220;SDS011;41089;51.448;6.604;2022-11-03T09:24:16;13.70;;;3.60;;
55220;SDS011;41089;51.448;6.604;2022-11-03T09:30:18;14.70;;;3.65;;
55220;SDS011;41089;51.448;6.604;2022-11-03T09:36:20;12.15;;;4.30;;
55220;SDS011;41089;51.448;6.604;2022-11-03T09:42:21;8.52;;;3.67;;
55220;SDS011;41089;51.448;6.604;2022-11-03T09:48:22;9.43;;;3.50;;
55220;SDS011;41089;51.448;6.604;2022-11-03T09:54:33;10.95;;;3.88;;
55220;SDS011;41089;51.448;6.604;2022-11-03T10:00:41;16.00;;;3.70;;
55220;SDS011;41089;51.448;6.604;2022-11-03T10:12:49;9.07;;;3.80;;
55220;SDS011;41089;51.448;6.604;2022-11-03T10:19:07;17.02;;;6.22;;
55220;SDS011;41089;51.448;6.604;2022-11-03T10:25:28;14.20;;;3.88;;
55220;SDS011;41089;51.448;6.604;2022-11-03T10:31:38;12.20;;;3.85;;
55220;SDS011;41089;51.448;6.604;2022-11-03T10:37:41;12.48;;;3.35;;
55220;SDS011;41089;51.448;6.604;2022-11-03T10:50:22;9.82;;;2.92;;
55220;SDS011;41089;51.448;6.604;2022-11-03T10:56:26;12.43;;;3.85;;
55220;SDS011;41089;51.448;6.604;2022-11-03T11:02:28;6.95;;;2.97;;
55220;SDS011;41089;51.448;6.604;2022-11-03T11:08:32;8.45;;;2.65;;
55220;SDS011;41089;51.448;6.604;2022-11-03T11:33:35;9.83;;;2.70;;
55220;SDS011;41089;51.448;6.604;2022-11-03T11:39:42;10.90;;;2.60;;
55220;SDS011;41089;51.448;6.604;2022-11-03T11:58:58;4.93;;;2.30;;
55220;SDS011;41089;51.448;6.604;2022-11-03T12:04:59;11.07;;;2.92;;
55220;SDS011;41089;51.448;6.604;2022-11-03T12:11:05;9.27;;;3.35;;
55220;SDS011;41089;51.448;6.604;2022-11-03T12:29:50;9.35;;;2.42;;
55220;SDS011;41089;51.448;6.604;2022-11-03T12:42:01;5.25;;;2.42;;
55220;SDS011;41089;51.448;6.604;2022-11-03T12:48:16;5.93;;;2.03;;
55220;SDS011;41089;51.448;6.604;2022-11-03T12:54:20;5.47;;;2.08;;
55220;SDS011;41089;51.448;6.604;2022-11-03T13:00:22;9.35;;;3.13;;
55220;SDS011;41089;51.448;6.604;2022-11-03T13:06:23;9.68;;;2.50;;
55220;SDS011;41089;51.448;6.604;2022-11-03T13:12:23;7.93;;;2.70;;
55220;SDS011;41089;51.448;6.604;2022-11-03T13:18:30;5.45;;;2.13;;
55220;SDS011;41089;51.448;6.604;2022-11-03T13:24:30;5.82;;;2.10;;
55220;SDS011;41089;51.448;6.604;2022-11-03T13:30:37;5.32;;;2.35;;
55220;SDS011;41089;51.448;6.604;2022-11-03T13:36:40;6.60;;;2.00;;
55220;SDS011;41089;51.448;6.604;2022-11-03T13:42:40;4.78;;;2.30;;
55220;SDS011;41089;51.448;6.604;2022-11-03T13:54:51;9.67;;;2.63;;
55220;SDS011;41089;51.448;6.604;2022-11-03T14:01:01;6.90;;;2.70;;
55220;SDS011;41089;51.448;6.604;2022-11-03T14:07:04;7.45;;;2.53;;
55220;SDS011;41089;51.448;6.604;2022-11-03T14:13:11;10.23;;;3.17;;
55220;SDS011;41089;51.448;6.604;2022-11-03T14:19:12;5.50;;;2.25;;
55220;SDS011;41089;51.448;6.604;2022-11-03T14:25:23;6.45;;;2.17;;
55220;SDS011;41089;51.448;6.604;2022-11-03T14:31:36;8.38;;;2.90;;
55220;SDS011;41089;51.448;6.604;2022-11-03T14:37:38;5.50;;;2.00;;
55220;SDS011;41089;51.448;6.604;2022-11-03T14:43:39;6.70;;;2.70;;
55220;SDS011;41089;51.448;6.604;2022-11-03T14:49:41;6.22;;;2.65;;
55220;SDS011;41089;51.448;6.604;2022-11-03T14:55:42;7.95;;;2.50;;
55220;SDS011;41089;51.448;6.604;2022-11-03T15:01:43;9.07;;;2.88;;
55220;SDS011;41089;51.448;6.604;2022-11-03T15:07:50;7.47;;;3.30;;
55220;SDS011;41089;51.448;6.604;2022-11-03T15:13:50;8.05;;;2.90;;
55220;SDS011;41089;51.448;6.604;2022-11-03T15:19:51;9.43;;;3.38;;
55220;SDS011;41089;51.448;6.604;2022-11-03T15:25:53;7.07;;;3.08;;
55220;SDS011;41089;51.448;6.604;2022-11-03T15:32:05;11.50;;;4.75;;
55220;SDS011;41089;51.448;6.604;2022-11-03T15:38:13;7.45;;;3.83;;
55220;SDS011;41089;51.448;6.604;2022-11-03T15:44:13;8.13;;;3.72;;
55220;SDS011;41089;51.448;6.604;2022-11-03T15:50:19;10.13;;;3.70;;
55220;SDS011;41089;51.448;6.604;2022-11-03T15:56:19;9.88;;;3.95;;
55220;SDS011;41089;51.448;6.604;2022-11-03T16:08:35;10.55;;;3.75;;
55220;SDS011;41089;51.448;6.604;2022-11-03T16:14:36;8.60;;;3.60;;
55220;SDS011;41089;51.448;6.604;2022-11-03T16:26:42;7.50;;;3.58;;
55220;SDS011;41089;51.448;6.604;2022-11-03T16:32:43;8.80;;;3.70;;
55220;SDS011;41089;51.448;6.604;2022-11-03T16:38:44;8.55;;;3.63;;
55220;SDS011;41089;51.448;6.604;2022-11-03T16:44:59;7.88;;;3.40;;
55220;SDS011;41089;51.448;6.604;2022-11-03T16:50:59;7.28;;;3.88;;
55220;SDS011;41089;51.448;6.604;2022-11-03T17:03:02;9.32;;;3.67;;
55220;SDS011;41089;51.448;6.604;2022-11-03T17:09:04;6.03;;;3.78;;
55220;SDS011;41089;51.448;6.604;2022-11-03T17:15:16;9.98;;;4.97;;
55220;SDS011;41089;51.448;6.604;2022-11-03T17:21:17;11.27;;;4.63;;
55220;SDS011;41089;51.448;6.604;2022-11-03T17:27:37;9.23;;;4.10;;
55220;SDS011;41089;51.448;6.604;2022-11-03T17:33:48;10.13;;;5.30;;
55220;SDS011;41089;51.448;6.604;2022-11-03T17:39:48;10.75;;;5.00;;
55220;SDS011;41089;51.448;6.604;2022-11-03T17:45:50;8.88;;;4.18;;
55220;SDS011;41089;51.448;6.604;2022-11-03T17:52:00;6.90;;;4.35;;
55220;SDS011;41089;51.448;6.604;2022-11-03T17:58:06;9.50;;;4.80;;
55220;SDS011;41089;51.448;6.604;2022-11-03T18:04:16;8.40;;;4.65;;
55220;SDS011;41089;51.448;6.604;2022-11-03T18:10:32;10.35;;;5.55;;
55220;SDS011;41089;51.448;6.604;2022-11-03T18:16:35;11.60;;;5.70;;
55220;SDS011;41089;51.448;6.604;2022-11-03T18:22:38;10.55;;;5.30;;
55220;SDS011;41089;51.448;6.604;2022-11-03T18:28:49;9.18;;;5.00;;
55220;SDS011;41089;51.448;6.604;2022-11-03T18:34:50;9.15;;;5.57;;
55220;SDS011;41089;51.448;6.604;2022-11-03T18:40:51;9.37;;;5.00;;
55220;SDS011;41089;51.448;6.604;2022-11-03T18:46:57;9.70;;;5.25;;
55220;SDS011;41089;51.448;6.604;2022-11-03T18:52:59;10.88;;;5.35;;
55220;SDS011;41089;51.448;6.604;2022-11-03T18:59:16;11.32;;;4.47;;
55220;SDS011;41089;51.448;6.604;2022-11-03T19:05:22;8.60;;;4.80;;
55220;SDS011;41089;51.448;6.604;2022-11-03T19:11:22;8.13;;;4.53;;
55220;SDS011;41089;51.448;6.604;2022-11-03T19:17:33;8.00;;;4.83;;
55220;SDS011;41089;51.448;6.604;2022-11-03T19:23:34;7.82;;;4.78;;
55220;SDS011;41089;51.448;6.604;2022-11-03T19:29:36;9.82;;;4.95;;
55220;SDS011;41089;51.448;6.604;2022-11-03T19:35:37;7.20;;;4.35;;
55220;SDS011;41089;51.448;6.604;2022-11-03T19:41:42;7.85;;;4.50;;
55220;SDS011;41089;51.448;6.604;2022-11-03T19:48:03;6.05;;;3.95;;
55220;SDS011;41089;51.448;6.604;2022-11-03T19:54:05;7.88;;;4.80;;
55220;SDS011;41089;51.448;6.604;2022-11-03T20:00:18;9.40;;;4.53;;
55220;SDS011;41089;51.448;6.604;2022-11-03T20:06:19;7.68;;;4.75;;
55220;SDS011;41089;51.448;6.604;2022-11-03T20:12:29;10.10;;;4.80;;
55220;SDS011;41089;51.448;6.604;2022-11-03T20:18:31;6.95;;;4.72;;
55220;SDS011;41089;51.448;6.604;2022-11-03T20:24:43;7.40;;;4.22;;
55220;SDS011;41089;51.448;6.604;2022-11-03T20:30:44;8.52;;;5.18;;
55220;SDS011;41089;51.448;6.604;2022-11-03T20:36:51;8.38;;;5.15;;
55220;SDS011;41089;51.448;6.604;2022-11-03T20:42:54;6.45;;;4.60;;
55220;SDS011;41089;51.448;6.604;2022-11-03T20:49:11;7.68;;;4.07;;
55220;SDS011;41089;51.448;6.604;2022-11-03T20:55:33;6.13;;;4.60;;
55220;SDS011;41089;51.448;6.604;2022-11-03T21:07:45;6.22;;;3.40;;
55220;SDS011;41089;51.448;6.604;2022-11-03T21:13:49;6.03;;;3.45;;
55220;SDS011;41089;51.448;6.604;2022-11-03T21:19:51;5.10;;;3.17;;
55220;SDS011;41089;51.448;6.604;2022-11-03T21:26:01;4.32;;;2.92;;
55220;SDS011;41089;51.448;6.604;2022-11-03T21:32:12;3.35;;;2.92;;
55220;SDS011;41089;51.448;6.604;2022-11-03T21:38:23;4.82;;;2.80;;
55220;SDS011;41089;51.448;6.604;2022-11-03T21:44:30;4.03;;;3.07;;
55220;SDS011;41089;51.448;6.604;2022-11-03T21:50:35;4.88;;;2.50;;
55220;SDS011;41089;51.448;6.604;2022-11-03T21:56:36;4.30;;;2.40;;
55220;SDS011;41089;51.448;6.604;2022-11-03T22:02:37;3.03;;;2.30;;
55220;SDS011;41089;51.448;6.604;2022-11-03T22:14:42;3.35;;;2.15;;
55220;SDS011;41089;51.448;6.604;2022-11-03T22:21:01;4.22;;;2.50;;
55220;SDS011;41089;51.448;6.604;2022-11-03T22:27:20;3.53;;;2.70;;
55220;SDS011;41089;51.448;6.604;2022-11-03T22:33:25;2.40;;;2.20;;
55220;SDS011;41089;51.448;6.604;2022-11-03T22:39:26;2.30;;;2.10;;
55220;SDS011;41089;51.448;6.604;2022-11-03T22:45:45;2.53;;;1.67;;
55220;SDS011;41089;51.448;6.604;2022-11-03T22:51:53;1.95;;;1.40;;
55220;SDS011;41089;51.448;6.604;2022-11-03T22:58:00;1.67;;;0.95;;
55220;SDS011;41089;51.448;6.604;2022-11-03T23:04:03;2.40;;;1.65;;
55220;SDS011;41089;51.448;6.604;2022-11-03T23:16:16;1.60;;;1.50;;
55220;SDS011;41089;51.448;6.604;2022-11-03T23:22:28;2.10;;;1.50;;
55220;SDS011;41089;51.448;6.604;2022-11-03T23:28:31;3.55;;;1.27;;
55220;SDS011;41089;51.448;6.604;2022-11-03T23:34:38;1.65;;;1.17;;
55220;SDS011;41089;51.448;6.604;2022-11-03T23:46:44;2.35;;;1.52;;
55220;SDS011;41089;51.448;6.604;2022-11-03T23:53:09;1.85;;;1.48;;
